sensor_id;sensor_type;location;lat;lon;timestamp;P1;durP1;ratioP1;P2;durP2;ratioP2
13475;SDS011;6810;63.824;20.288;2023-11-21T09:03:38;0.10;;;0.10;;
13475;SDS011;6810;63.824;20.288;2023-11-21T09:06:05;0.67;;;0.40;;
13475;SDS011;6810;63.824;20.288;2023-11-21T09:08:32;1.30;;;0.30;;
13475;SDS011;6810;63.824;20.288;2023-11-21T09:10:59;0.90;;;0.50;;
13475;SDS011;6810;63.824;20.288;2023-11-21T09:13:26;0.77;;;0.40;;
13475;SDS011;6810;63.824;20.288;2023-11-21T09:15:54;0.80;;;0.20;;
13475;SDS011;6810;63.824;20.288;2023-11-21T09:18:41;0.27;;;0.27;;
13475;SDS011;6810;63.824;20.288;2023-11-21T09:21:28;0.47;;;0.20;;
13475;SDS011;6810;63.824;20.288;2023-11-21T09:24:15;2.20;;;0.30;;
13475;SDS011;6810;63.824;20.288;2023-11-21T09:27:04;0.20;;;0.20;;
13475;SDS011;6810;63.824;20.288;2023-11-21T09:29:51;0.50;;;0.27;;
13475;SDS011;6810;63.824;20.288;2023-11-21T09:32:38;0.20;;;0.20;;
13475;SDS011;6810;63.824;20.288;2023-11-21T09:35:25;0.13;;;0.13;;
13475;SDS011;6810;63.824;20.288;2023-11-21T09:38:12;0.27;;;0.20;;
13475;SDS011;6810;63.824;20.288;2023-11-21T09:40:59;0.10;;;0.10;;
13475;SDS011;6810;63.824;20.288;2023-11-21T09:43:48;0.10;;;0.10;;
13475;SDS011;6810;63.824;20.288;2023-11-21T09:46:42;0.63;;;0.20;;
13475;SDS011;6810;63.824;20.288;2023-11-21T09:49:29;0.10;;;0.10;;
13475;SDS011;6810;63.824;20.288;2023-11-21T09:52:24;0.33;;;0.10;;
13475;SDS011;6810;63.824;20.288;2023-11-21T09:55:12;0.73;;;0.20;;
13475;SDS011;6810;63.824;20.288;2023-11-21T09:57:59;2.37;;;0.20;;
13475;SDS011;6810;63.824;20.288;2023-11-21T10:00:48;1.60;;;0.40;;
13475;SDS011;6810;63.824;20.288;2023-11-21T10:03:39;0.40;;;0.20;;
13475;SDS011;6810;63.824;20.288;2023-11-21T10:06:26;0.37;;;0.30;;
13475;SDS011;6810;63.824;20.288;2023-11-21T10:09:15;0.47;;;0.27;;
13475;SDS011;6810;63.824;20.288;2023-11-21T10:12:03;0.37;;;0.20;;
13475;SDS011;6810;63.824;20.288;2023-11-21T10:14:52;0.30;;;0.20;;
13475;SDS011;6810;63.824;20.288;2023-11-21T10:17:41;0.20;;;0.20;;
13475;SDS011;6810;63.824;20.288;2023-11-21T10:20:31;0.87;;;0.23;;
13475;SDS011;6810;63.824;20.288;2023-11-21T10:23:23;0.67;;;0.20;;
13475;SDS011;6810;63.824;20.288;2023-11-21T10:26:11;0.10;;;0.10;;
13475;SDS011;6810;63.824;20.288;2023-11-21T10:29:12;0.33;;;0.30;;
13475;SDS011;6810;63.824;20.288;2023-11-21T10:32:04;0.47;;;0.47;;
13475;SDS011;6810;63.824;20.288;2023-11-21T10:34:57;1.20;;;0.10;;
13475;SDS011;6810;63.824;20.288;2023-11-21T10:37:44;0.27;;;0.27;;
13475;SDS011;6810;63.824;20.288;2023-11-21T10:40:46;0.10;;;0.10;;
13475;SDS011;6810;63.824;20.288;2023-11-21T10:43:34;0.40;;;0.30;;
13475;SDS011;6810;63.824;20.288;2023-11-21T10:46:21;0.37;;;0.20;;
13475;SDS011;6810;63.824;20.288;2023-11-21T10:49:09;0.13;;;0.10;;
13475;SDS011;6810;63.824;20.288;2023-11-21T10:51:57;0.47;;;0.47;;
13475;SDS011;6810;63.824;20.288;2023-11-21T10:54:44;1.37;;;0.40;;
13475;SDS011;6810;63.824;20.288;2023-11-21T10:57:32;0.93;;;0.23;;
13475;SDS011;6810;63.824;20.288;2023-11-21T11:00:19;0.30;;;0.10;;
13475;SDS011;6810;63.824;20.288;2023-11-21T11:03:10;0.60;;;0.40;;
13475;SDS011;6810;63.824;20.288;2023-11-21T11:05:58;1.73;;;0.40;;
13475;SDS011;6810;63.824;20.288;2023-11-21T11:08:46;0.77;;;0.50;;
13475;SDS011;6810;63.824;20.288;2023-11-21T11:11:35;0.40;;;0.40;;
13475;SDS011;6810;63.824;20.288;2023-11-21T11:14:22;0.40;;;0.20;;
13475;SDS011;6810;63.824;20.288;2023-11-21T11:17:10;3.90;;;0.60;;
13475;SDS011;6810;63.824;20.288;2023-11-21T11:19:57;0.10;;;0.10;;
13475;SDS011;6810;63.824;20.288;2023-11-21T11:22:50;0.30;;;0.20;;
13475;SDS011;6810;63.824;20.288;2023-11-21T11:32:10;0.47;;;0.20;;
13475;SDS011;6810;63.824;20.288;2023-11-21T11:35:14;0.73;;;0.43;;
13475;SDS011;6810;63.824;20.288;2023-11-21T11:38:07;0.97;;;0.60;;
13475;SDS011;6810;63.824;20.288;2023-11-21T11:40:54;0.50;;;0.30;;
13475;SDS011;6810;63.824;20.288;2023-11-21T11:43:41;0.20;;;0.20;;
13475;SDS011;6810;63.824;20.288;2023-11-21T11:46:41;0.43;;;0.27;;
13475;SDS011;6810;63.824;20.288;2023-11-21T11:49:32;0.37;;;0.20;;
13475;SDS011;6810;63.824;20.288;2023-11-21T11:55:23;0.30;;;0.30;;
13475;SDS011;6810;63.824;20.288;2023-11-21T11:58:11;0.20;;;0.10;;
13475;SDS011;6810;63.824;20.288;2023-11-21T12:00:58;0.30;;;0.20;;
13475;SDS011;6810;63.824;20.288;2023-11-21T12:06:59;0.73;;;0.30;;
13475;SDS011;6810;63.824;20.288;2023-11-21T12:09:47;0.10;;;0.10;;
13475;SDS011;6810;63.824;20.288;2023-11-21T12:12:34;0.63;;;0.40;;
13475;SDS011;6810;63.824;20.288;2023-11-21T12:15:22;0.50;;;0.40;;
13475;SDS011;6810;63.824;20.288;2023-11-21T12:18:09;0.33;;;0.20;;
13475;SDS011;6810;63.824;20.288;2023-11-21T12:20:56;0.23;;;0.20;;
13475;SDS011;6810;63.824;20.288;2023-11-21T12:23:43;0.27;;;0.20;;
13475;SDS011;6810;63.824;20.288;2023-11-21T12:26:30;0.10;;;0.10;;
13475;SDS011;6810;63.824;20.288;2023-11-21T12:29:17;0.10;;;0.10;;
13475;SDS011;6810;63.824;20.288;2023-11-21T12:32:04;0.20;;;0.20;;
13475;SDS011;6810;63.824;20.288;2023-11-21T12:34:52;1.33;;;0.20;;
13475;SDS011;6810;63.824;20.288;2023-11-21T12:37:40;0.33;;;0.33;;
13475;SDS011;6810;63.824;20.288;2023-11-21T12:40:28;0.67;;;0.40;;
13475;SDS011;6810;63.824;20.288;2023-11-21T12:43:15;0.37;;;0.30;;
13475;SDS011;6810;63.824;20.288;2023-11-21T12:46:07;0.50;;;0.30;;
13475;SDS011;6810;63.824;20.288;2023-11-21T12:48:58;0.50;;;0.30;;
13475;SDS011;6810;63.824;20.288;2023-11-21T12:51:45;0.10;;;0.10;;
13475;SDS011;6810;63.824;20.288;2023-11-21T12:54:33;0.50;;;0.23;;
13475;SDS011;6810;63.824;20.288;2023-11-21T12:57:20;0.23;;;0.20;;
13475;SDS011;6810;63.824;20.288;2023-11-21T13:00:07;0.50;;;0.23;;
13475;SDS011;6810;63.824;20.288;2023-11-21T13:02:55;0.80;;;0.43;;
13475;SDS011;6810;63.824;20.288;2023-11-21T13:05:47;0.27;;;0.27;;
13475;SDS011;6810;63.824;20.288;2023-11-21T13:08:37;0.73;;;0.60;;
13475;SDS011;6810;63.824;20.288;2023-11-21T13:11:24;0.50;;;0.40;;
13475;SDS011;6810;63.824;20.288;2023-11-21T13:14:11;0.13;;;0.13;;
13475;SDS011;6810;63.824;20.288;2023-11-21T13:16:58;1.60;;;0.73;;
13475;SDS011;6810;63.824;20.288;2023-11-21T13:19:45;0.60;;;0.33;;
13475;SDS011;6810;63.824;20.288;2023-11-21T13:22:32;1.23;;;0.40;;
13475;SDS011;6810;63.824;20.288;2023-11-21T13:25:23;0.30;;;0.30;;
13475;SDS011;6810;63.824;20.288;2023-11-21T13:28:12;0.20;;;0.20;;
13475;SDS011;6810;63.824;20.288;2023-11-21T13:31:00;0.80;;;0.40;;
13475;SDS011;6810;63.824;20.288;2023-11-21T13:33:51;0.37;;;0.30;;
13475;SDS011;6810;63.824;20.288;2023-11-21T13:36:46;0.57;;;0.47;;
13475;SDS011;6810;63.824;20.288;2023-11-21T13:39:33;1.37;;;0.57;;
13475;SDS011;6810;63.824;20.288;2023-11-21T13:42:20;0.60;;;0.30;;
13475;SDS011;6810;63.824;20.288;2023-11-21T13:45:07;0.40;;;0.13;;
13475;SDS011;6810;63.824;20.288;2023-11-21T13:47:55;0.10;;;0.10;;
13475;SDS011;6810;63.824;20.288;2023-11-21T13:50:45;1.20;;;0.57;;
13475;SDS011;6810;63.824;20.288;2023-11-21T13:53:42;0.97;;;0.23;;
13475;SDS011;6810;63.824;20.288;2023-11-21T13:56:30;0.50;;;0.33;;
13475;SDS011;6810;63.824;20.288;2023-11-21T13:59:17;0.60;;;0.30;;
13475;SDS011;6810;63.824;20.288;2023-11-21T14:02:10;0.57;;;0.33;;
13475;SDS011;6810;63.824;20.288;2023-11-21T14:04:59;0.20;;;0.20;;
13475;SDS011;6810;63.824;20.288;2023-11-21T14:07:47;0.53;;;0.53;;
13475;SDS011;6810;63.824;20.288;2023-11-21T14:10:34;0.30;;;0.27;;
13475;SDS011;6810;63.824;20.288;2023-11-21T14:13:23;0.90;;;0.50;;
13475;SDS011;6810;63.824;20.288;2023-11-21T14:16:10;0.57;;;0.50;;
13475;SDS011;6810;63.824;20.288;2023-11-21T14:18:57;0.73;;;0.30;;
13475;SDS011;6810;63.824;20.288;2023-11-21T14:21:47;0.30;;;0.30;;
13475;SDS011;6810;63.824;20.288;2023-11-21T14:24:37;0.40;;;0.40;;
13475;SDS011;6810;63.824;20.288;2023-11-21T14:27:24;1.07;;;0.40;;
13475;SDS011;6810;63.824;20.288;2023-11-21T14:30:12;0.93;;;0.50;;
13475;SDS011;6810;63.824;20.288;2023-11-21T14:32:59;0.97;;;0.40;;
13475;SDS011;6810;63.824;20.288;2023-11-21T14:35:46;1.77;;;0.47;;
13475;SDS011;6810;63.824;20.288;2023-11-21T14:38:33;2.00;;;0.50;;
13475;SDS011;6810;63.824;20.288;2023-11-21T14:41:20;0.97;;;0.50;;
13475;SDS011;6810;63.824;20.288;2023-11-21T14:44:07;0.33;;;0.20;;
13475;SDS011;6810;63.824;20.288;2023-11-21T14:46:54;0.87;;;0.80;;
13475;SDS011;6810;63.824;20.288;2023-11-21T14:49:42;0.50;;;0.30;;
13475;SDS011;6810;63.824;20.288;2023-11-21T14:52:41;1.47;;;0.40;;
13475;SDS011;6810;63.824;20.288;2023-11-21T14:55:28;0.20;;;0.10;;
13475;SDS011;6810;63.824;20.288;2023-11-21T14:58:18;0.40;;;0.23;;
13475;SDS011;6810;63.824;20.288;2023-11-21T15:01:15;0.43;;;0.30;;
13475;SDS011;6810;63.824;20.288;2023-11-21T15:04:02;0.40;;;0.40;;
13475;SDS011;6810;63.824;20.288;2023-11-21T15:06:49;0.10;;;0.10;;
13475;SDS011;6810;63.824;20.288;2023-11-21T15:09:36;0.57;;;0.40;;
13475;SDS011;6810;63.824;20.288;2023-11-21T15:12:23;0.40;;;0.40;;
13475;SDS011;6810;63.824;20.288;2023-11-21T15:15:11;0.30;;;0.30;;
13475;SDS011;6810;63.824;20.288;2023-11-21T15:17:58;2.30;;;0.60;;
13475;SDS011;6810;63.824;20.288;2023-11-21T15:20:45;0.67;;;0.67;;
13475;SDS011;6810;63.824;20.288;2023-11-21T15:23:32;0.60;;;0.60;;
13475;SDS011;6810;63.824;20.288;2023-11-21T15:26:19;0.77;;;0.60;;
13475;SDS011;6810;63.824;20.288;2023-11-21T15:29:06;0.83;;;0.50;;
13475;SDS011;6810;63.824;20.288;2023-11-21T15:31:53;0.53;;;0.50;;
13475;SDS011;6810;63.824;20.288;2023-11-21T15:34:40;0.57;;;0.50;;
13475;SDS011;6810;63.824;20.288;2023-11-21T15:37:27;0.67;;;0.67;;
13475;SDS011;6810;63.824;20.288;2023-11-21T15:40:15;1.23;;;1.10;;
13475;SDS011;6810;63.824;20.288;2023-11-21T15:43:02;0.67;;;0.57;;
13475;SDS011;6810;63.824;20.288;2023-11-21T15:45:49;1.27;;;0.83;;
13475;SDS011;6810;63.824;20.288;2023-11-21T15:48:36;1.03;;;0.70;;
13475;SDS011;6810;63.824;20.288;2023-11-21T15:51:23;1.40;;;0.37;;
13475;SDS011;6810;63.824;20.288;2023-11-21T15:54:10;1.63;;;0.67;;
13475;SDS011;6810;63.824;20.288;2023-11-21T15:56:57;0.87;;;0.60;;
13475;SDS011;6810;63.824;20.288;2023-11-21T15:59:44;6.80;;;0.77;;
13475;SDS011;6810;63.824;20.288;2023-11-21T16:02:33;0.10;;;0.10;;
13475;SDS011;6810;63.824;20.288;2023-11-21T16:05:20;0.87;;;0.40;;
13475;SDS011;6810;63.824;20.288;2023-11-21T16:08:07;4.33;;;0.70;;
13475;SDS011;6810;63.824;20.288;2023-11-21T16:10:54;0.57;;;0.57;;
13475;SDS011;6810;63.824;20.288;2023-11-21T16:13:43;0.30;;;0.30;;
13475;SDS011;6810;63.824;20.288;2023-11-21T16:16:30;1.73;;;0.73;;
13475;SDS011;6810;63.824;20.288;2023-11-21T16:19:17;0.87;;;0.47;;
13475;SDS011;6810;63.824;20.288;2023-11-21T16:22:04;0.40;;;0.40;;
13475;SDS011;6810;63.824;20.288;2023-11-21T16:24:51;2.10;;;0.70;;
13475;SDS011;6810;63.824;20.288;2023-11-21T16:27:39;3.27;;;0.50;;
13475;SDS011;6810;63.824;20.288;2023-11-21T16:30:26;0.27;;;0.27;;
13475;SDS011;6810;63.824;20.288;2023-11-21T16:33:13;0.77;;;0.50;;
13475;SDS011;6810;63.824;20.288;2023-11-21T16:36:01;1.10;;;0.43;;
13475;SDS011;6810;63.824;20.288;2023-11-21T16:38:48;1.80;;;0.57;;
13475;SDS011;6810;63.824;20.288;2023-11-21T16:41:35;0.67;;;0.50;;
13475;SDS011;6810;63.824;20.288;2023-11-21T16:44:22;0.90;;;0.90;;
13475;SDS011;6810;63.824;20.288;2023-11-21T16:47:09;0.87;;;0.60;;
13475;SDS011;6810;63.824;20.288;2023-11-21T16:49:59;1.23;;;0.60;;
13475;SDS011;6810;63.824;20.288;2023-11-21T16:52:46;0.50;;;0.50;;
13475;SDS011;6810;63.824;20.288;2023-11-21T16:55:33;1.03;;;0.47;;
13475;SDS011;6810;63.824;20.288;2023-11-21T16:58:20;0.63;;;0.63;;
13475;SDS011;6810;63.824;20.288;2023-11-21T17:01:07;0.73;;;0.73;;
13475;SDS011;6810;63.824;20.288;2023-11-21T17:03:57;3.57;;;0.70;;
13475;SDS011;6810;63.824;20.288;2023-11-21T17:06:45;1.00;;;1.00;;
13475;SDS011;6810;63.824;20.288;2023-11-21T17:09:32;0.40;;;0.40;;
13475;SDS011;6810;63.824;20.288;2023-11-21T17:12:20;2.13;;;1.00;;
13475;SDS011;6810;63.824;20.288;2023-11-21T17:15:07;0.57;;;0.50;;
13475;SDS011;6810;63.824;20.288;2023-11-21T17:17:54;0.93;;;0.40;;
13475;SDS011;6810;63.824;20.288;2023-11-21T17:20:41;1.43;;;0.47;;
13475;SDS011;6810;63.824;20.288;2023-11-21T17:23:29;1.60;;;0.73;;
13475;SDS011;6810;63.824;20.288;2023-11-21T17:26:16;3.10;;;0.50;;
13475;SDS011;6810;63.824;20.288;2023-11-21T17:29:03;4.10;;;0.80;;
13475;SDS011;6810;63.824;20.288;2023-11-21T17:31:51;1.10;;;0.73;;
13475;SDS011;6810;63.824;20.288;2023-11-21T17:34:41;0.63;;;0.60;;
13475;SDS011;6810;63.824;20.288;2023-11-21T17:37:28;3.17;;;0.77;;
13475;SDS011;6810;63.824;20.288;2023-11-21T17:40:15;1.87;;;0.73;;
13475;SDS011;6810;63.824;20.288;2023-11-21T17:43:03;1.93;;;0.80;;
13475;SDS011;6810;63.824;20.288;2023-11-21T17:45:50;0.40;;;0.40;;
13475;SDS011;6810;63.824;20.288;2023-11-21T17:48:37;1.07;;;0.50;;
13475;SDS011;6810;63.824;20.288;2023-11-21T17:51:24;2.97;;;0.87;;
13475;SDS011;6810;63.824;20.288;2023-11-21T17:54:11;0.73;;;0.47;;
13475;SDS011;6810;63.824;20.288;2023-11-21T17:56:58;1.33;;;0.90;;
13475;SDS011;6810;63.824;20.288;2023-11-21T17:59:45;2.03;;;0.93;;
13475;SDS011;6810;63.824;20.288;2023-11-21T18:02:34;1.27;;;0.93;;
13475;SDS011;6810;63.824;20.288;2023-11-21T18:05:22;4.07;;;1.43;;
13475;SDS011;6810;63.824;20.288;2023-11-21T18:08:09;2.17;;;1.07;;
13475;SDS011;6810;63.824;20.288;2023-11-21T18:10:56;2.30;;;0.90;;
13475;SDS011;6810;63.824;20.288;2023-11-21T18:13:43;2.17;;;0.77;;
13475;SDS011;6810;63.824;20.288;2023-11-21T18:16:30;1.33;;;1.23;;
13475;SDS011;6810;63.824;20.288;2023-11-21T18:19:17;0.83;;;0.83;;
13475;SDS011;6810;63.824;20.288;2023-11-21T18:22:05;0.47;;;0.47;;
13475;SDS011;6810;63.824;20.288;2023-11-21T18:24:52;2.70;;;0.83;;
13475;SDS011;6810;63.824;20.288;2023-11-21T18:27:42;2.30;;;1.00;;
13475;SDS011;6810;63.824;20.288;2023-11-21T18:30:28;0.73;;;0.53;;
13475;SDS011;6810;63.824;20.288;2023-11-21T18:33:16;5.20;;;1.23;;
13475;SDS011;6810;63.824;20.288;2023-11-21T18:36:05;0.60;;;0.60;;
13475;SDS011;6810;63.824;20.288;2023-11-21T18:38:53;0.87;;;0.60;;
13475;SDS011;6810;63.824;20.288;2023-11-21T18:41:40;0.77;;;0.60;;
13475;SDS011;6810;63.824;20.288;2023-11-21T18:44:27;0.93;;;0.83;;
13475;SDS011;6810;63.824;20.288;2023-11-21T18:47:24;0.30;;;0.23;;
13475;SDS011;6810;63.824;20.288;2023-11-21T18:50:13;1.20;;;0.90;;
13475;SDS011;6810;63.824;20.288;2023-11-21T18:53:00;2.10;;;0.97;;
13475;SDS011;6810;63.824;20.288;2023-11-21T18:55:47;4.07;;;1.33;;
13475;SDS011;6810;63.824;20.288;2023-11-21T18:58:35;2.67;;;0.70;;
13475;SDS011;6810;63.824;20.288;2023-11-21T19:04:12;0.63;;;0.60;;
13475;SDS011;6810;63.824;20.288;2023-11-21T19:06:59;1.10;;;0.80;;
13475;SDS011;6810;63.824;20.288;2023-11-21T19:09:48;8.00;;;1.83;;
13475;SDS011;6810;63.824;20.288;2023-11-21T19:12:36;1.37;;;0.77;;
13475;SDS011;6810;63.824;20.288;2023-11-21T19:15:23;5.00;;;1.33;;
13475;SDS011;6810;63.824;20.288;2023-11-21T19:18:10;0.80;;;0.80;;
13475;SDS011;6810;63.824;20.288;2023-11-21T19:20:57;1.30;;;0.40;;
13475;SDS011;6810;63.824;20.288;2023-11-21T19:23:45;3.23;;;1.40;;
13475;SDS011;6810;63.824;20.288;2023-11-21T19:26:32;1.27;;;0.97;;
13475;SDS011;6810;63.824;20.288;2023-11-21T19:29:20;0.20;;;0.20;;
13475;SDS011;6810;63.824;20.288;2023-11-21T19:32:07;0.37;;;0.37;;
13475;SDS011;6810;63.824;20.288;2023-11-21T19:34:54;0.73;;;0.60;;
13475;SDS011;6810;63.824;20.288;2023-11-21T19:37:41;3.00;;;1.90;;
13475;SDS011;6810;63.824;20.288;2023-11-21T19:40:28;1.50;;;0.77;;
13475;SDS011;6810;63.824;20.288;2023-11-21T19:43:15;0.90;;;0.60;;
13475;SDS011;6810;63.824;20.288;2023-11-21T19:46:02;0.87;;;0.87;;
13475;SDS011;6810;63.824;20.288;2023-11-21T19:48:49;0.40;;;0.40;;
13475;SDS011;6810;63.824;20.288;2023-11-21T19:51:36;6.77;;;1.10;;
13475;SDS011;6810;63.824;20.288;2023-11-21T19:54:23;1.30;;;1.20;;
13475;SDS011;6810;63.824;20.288;2023-11-21T19:57:10;4.00;;;1.53;;
13475;SDS011;6810;63.824;20.288;2023-11-21T19:59:57;3.80;;;1.40;;
13475;SDS011;6810;63.824;20.288;2023-11-21T20:02:44;1.53;;;0.87;;
13475;SDS011;6810;63.824;20.288;2023-11-21T20:05:31;0.90;;;0.90;;
13475;SDS011;6810;63.824;20.288;2023-11-21T20:08:18;1.70;;;1.60;;
13475;SDS011;6810;63.824;20.288;2023-11-21T20:11:05;0.60;;;0.60;;
13475;SDS011;6810;63.824;20.288;2023-11-21T20:13:52;0.83;;;0.80;;
13475;SDS011;6810;63.824;20.288;2023-11-21T20:16:39;2.83;;;0.83;;
13475;SDS011;6810;63.824;20.288;2023-11-21T20:19:30;3.40;;;1.30;;
13475;SDS011;6810;63.824;20.288;2023-11-21T20:22:17;0.83;;;0.70;;
13475;SDS011;6810;63.824;20.288;2023-11-21T20:25:04;1.77;;;1.57;;
13475;SDS011;6810;63.824;20.288;2023-11-21T20:27:51;1.23;;;0.97;;
13475;SDS011;6810;63.824;20.288;2023-11-21T20:30:39;2.43;;;1.33;;
13475;SDS011;6810;63.824;20.288;2023-11-21T20:33:26;3.90;;;2.03;;
13475;SDS011;6810;63.824;20.288;2023-11-21T20:36:13;1.50;;;0.87;;
13475;SDS011;6810;63.824;20.288;2023-11-21T20:39:00;1.80;;;0.83;;
13475;SDS011;6810;63.824;20.288;2023-11-21T20:41:47;0.77;;;0.77;;
13475;SDS011;6810;63.824;20.288;2023-11-21T20:44:34;1.60;;;1.00;;
13475;SDS011;6810;63.824;20.288;2023-11-21T20:47:21;2.17;;;1.20;;
13475;SDS011;6810;63.824;20.288;2023-11-21T20:50:09;3.20;;;0.90;;
13475;SDS011;6810;63.824;20.288;2023-11-21T20:52:56;1.27;;;1.03;;
13475;SDS011;6810;63.824;20.288;2023-11-21T20:55:43;2.97;;;0.90;;
13475;SDS011;6810;63.824;20.288;2023-11-21T20:58:30;3.53;;;1.70;;
13475;SDS011;6810;63.824;20.288;2023-11-21T21:01:17;3.40;;;1.53;;
13475;SDS011;6810;63.824;20.288;2023-11-21T21:04:05;5.23;;;1.97;;
13475;SDS011;6810;63.824;20.288;2023-11-21T21:06:54;4.33;;;1.93;;
13475;SDS011;6810;63.824;20.288;2023-11-21T21:09:41;4.63;;;2.17;;
13475;SDS011;6810;63.824;20.288;2023-11-21T21:12:30;3.70;;;1.87;;
13475;SDS011;6810;63.824;20.288;2023-11-21T21:15:18;5.50;;;2.40;;
13475;SDS011;6810;63.824;20.288;2023-11-21T21:18:05;6.60;;;2.50;;
13475;SDS011;6810;63.824;20.288;2023-11-21T21:20:53;5.83;;;2.00;;
13475;SDS011;6810;63.824;20.288;2023-11-21T21:23:40;5.43;;;2.23;;
13475;SDS011;6810;63.824;20.288;2023-11-21T21:26:27;6.00;;;2.37;;
13475;SDS011;6810;63.824;20.288;2023-11-21T21:29:14;2.40;;;1.43;;
13475;SDS011;6810;63.824;20.288;2023-11-21T21:32:01;6.07;;;2.03;;
13475;SDS011;6810;63.824;20.288;2023-11-21T21:34:48;7.23;;;2.30;;
13475;SDS011;6810;63.824;20.288;2023-11-21T21:37:37;4.33;;;1.60;;
13475;SDS011;6810;63.824;20.288;2023-11-21T21:40:25;5.87;;;3.00;;
13475;SDS011;6810;63.824;20.288;2023-11-21T21:43:13;7.10;;;2.47;;
13475;SDS011;6810;63.824;20.288;2023-11-21T21:45:59;6.97;;;3.13;;
13475;SDS011;6810;63.824;20.288;2023-11-21T21:48:47;7.30;;;2.67;;
13475;SDS011;6810;63.824;20.288;2023-11-21T21:51:33;6.67;;;3.07;;
13475;SDS011;6810;63.824;20.288;2023-11-21T21:54:21;6.43;;;2.73;;
13475;SDS011;6810;63.824;20.288;2023-11-21T21:57:08;5.73;;;2.10;;
13475;SDS011;6810;63.824;20.288;2023-11-21T21:59:55;3.63;;;2.00;;
13475;SDS011;6810;63.824;20.288;2023-11-21T22:02:42;7.60;;;2.97;;
13475;SDS011;6810;63.824;20.288;2023-11-21T22:05:29;3.87;;;1.70;;
13475;SDS011;6810;63.824;20.288;2023-11-21T22:08:16;4.47;;;1.63;;
13475;SDS011;6810;63.824;20.288;2023-11-21T22:11:03;6.70;;;2.43;;
13475;SDS011;6810;63.824;20.288;2023-11-21T22:13:50;3.37;;;2.80;;
13475;SDS011;6810;63.824;20.288;2023-11-21T22:16:37;4.97;;;2.13;;
13475;SDS011;6810;63.824;20.288;2023-11-21T22:19:24;5.03;;;3.13;;
13475;SDS011;6810;63.824;20.288;2023-11-21T22:22:11;6.77;;;1.90;;
13475;SDS011;6810;63.824;20.288;2023-11-21T22:24:58;5.70;;;2.20;;
13475;SDS011;6810;63.824;20.288;2023-11-21T22:27:45;3.40;;;1.90;;
13475;SDS011;6810;63.824;20.288;2023-11-21T22:30:32;6.20;;;2.70;;
13475;SDS011;6810;63.824;20.288;2023-11-21T22:33:19;5.70;;;3.00;;
13475;SDS011;6810;63.824;20.288;2023-11-21T22:36:12;4.83;;;2.00;;
13475;SDS011;6810;63.824;20.288;2023-11-21T22:38:59;5.97;;;2.93;;
13475;SDS011;6810;63.824;20.288;2023-11-21T22:41:46;4.97;;;2.50;;
13475;SDS011;6810;63.824;20.288;2023-11-21T22:44:33;4.97;;;2.17;;
13475;SDS011;6810;63.824;20.288;2023-11-21T22:47:20;3.83;;;2.60;;
13475;SDS011;6810;63.824;20.288;2023-11-21T22:50:07;4.73;;;2.10;;
13475;SDS011;6810;63.824;20.288;2023-11-21T22:52:56;9.57;;;2.60;;
13475;SDS011;6810;63.824;20.288;2023-11-21T22:55:44;4.93;;;1.73;;
13475;SDS011;6810;63.824;20.288;2023-11-21T22:58:31;4.13;;;1.87;;
13475;SDS011;6810;63.824;20.288;2023-11-21T23:01:18;5.73;;;2.70;;
13475;SDS011;6810;63.824;20.288;2023-11-21T23:04:05;4.13;;;2.07;;
13475;SDS011;6810;63.824;20.288;2023-11-21T23:06:52;7.10;;;2.03;;
13475;SDS011;6810;63.824;20.288;2023-11-21T23:09:40;5.63;;;2.80;;
13475;SDS011;6810;63.824;20.288;2023-11-21T23:12:27;2.00;;;1.60;;
13475;SDS011;6810;63.824;20.288;2023-11-21T23:15:13;4.90;;;1.97;;
13475;SDS011;6810;63.824;20.288;2023-11-21T23:18:01;2.60;;;1.40;;
13475;SDS011;6810;63.824;20.288;2023-11-21T23:20:47;5.20;;;2.37;;
13475;SDS011;6810;63.824;20.288;2023-11-21T23:23:35;8.13;;;2.17;;
13475;SDS011;6810;63.824;20.288;2023-11-21T23:26:22;4.03;;;1.90;;
13475;SDS011;6810;63.824;20.288;2023-11-21T23:29:09;5.83;;;1.87;;
13475;SDS011;6810;63.824;20.288;2023-11-21T23:31:56;4.33;;;1.90;;
13475;SDS011;6810;63.824;20.288;2023-11-21T23:34:46;3.53;;;1.50;;
13475;SDS011;6810;63.824;20.288;2023-11-21T23:37:33;4.97;;;2.10;;
13475;SDS011;6810;63.824;20.288;2023-11-21T23:40:20;2.37;;;2.17;;
13475;SDS011;6810;63.824;20.288;2023-11-21T23:43:07;5.10;;;1.83;;
13475;SDS011;6810;63.824;20.288;2023-11-21T23:45:54;5.70;;;1.83;;
13475;SDS011;6810;63.824;20.288;2023-11-21T23:48:41;5.40;;;2.67;;
13475;SDS011;6810;63.824;20.288;2023-11-21T23:51:28;4.20;;;1.80;;
13475;SDS011;6810;63.824;20.288;2023-11-21T23:54:15;2.27;;;1.10;;
13475;SDS011;6810;63.824;20.288;2023-11-21T23:57:02;2.50;;;1.40;;
13475;SDS011;6810;63.824;20.288;2023-11-21T23:59:49;3.47;;;1.13;;
